Terminal Aerodrome Forecast
Issued by NWS Blacksburg, VA

Current Version | Previous Version | Graphics & Text | Print | Product List | Glossary On
Versions: 1 2 3 4 5 6 7 8 9 10 11 12 13 14 15 16 17
000
FTUS41 KRNK 201720
TAFBLF
TAF
KBLF 201720Z 2018/2118 28008G17KT P6SM FEW250
     FM210000 VRB03KT P6SM SCT250
     FM211500 28007KT P6SM SCT250=

USA.gov is the U.S. government's official web portal to all federal, state and local government web resources and services.